createdAt,value
2022-08-22T00:02:20.398Z,101713.69
2022-08-22T00:03:10.964Z,101736.94
2022-08-22T00:03:12.823Z,101744.38
2022-08-22T00:03:15.072Z,101723.50
2022-08-22T00:03:15.427Z,101743.63
2022-08-22T00:05:03.544Z,101711.06
2022-08-22T00:07:53.701Z,101715.56
2022-08-22T00:10:46.137Z,101717.09
2022-08-22T00:13:19.756Z,101716.28
2022-08-22T00:15:54.296Z,101709.53
2022-08-22T00:18:41.916Z,101719.31
2022-08-22T00:21:22.087Z,101722.22
2022-08-22T00:23:53.087Z,101716.63
2022-08-22T00:26:34.003Z,101720.03
2022-08-22T00:29:08.866Z,101718.16
2022-08-22T00:31:40.515Z,101720.03
2022-08-22T00:34:09.749Z,101722.63
2022-08-22T00:37:04.572Z,101724.50
2022-08-22T00:39:38.907Z,101717.72
2022-08-22T00:42:14.925Z,101718.84
2022-08-22T00:45:26.753Z,101715.84
2022-08-22T00:48:17.328Z,101735.00
2022-08-22T00:51:10.758Z,101725.94
2022-08-22T00:53:52.378Z,101741.31
2022-08-22T00:56:41.436Z,101722.91
2022-08-22T00:59:32.802Z,101725.13
2022-08-22T01:02:30.145Z,101725.16
2022-08-22T01:05:10.213Z,101740.91
2022-08-22T01:08:14.032Z,101724.72
2022-08-22T01:10:45.581Z,101732.19
2022-08-22T01:13:44.653Z,101731.88
2022-08-22T01:16:32.919Z,101734.47
2022-08-22T01:19:24.058Z,101734.41
2022-08-22T01:22:05.573Z,101733.63
2022-08-22T01:25:15.718Z,101733.28
2022-08-22T01:30:36.560Z,101734.38
2022-08-22T01:33:41.068Z,101734.06
2022-08-22T01:36:13.459Z,101738.53
2022-08-22T01:38:48.406Z,101735.16
2022-08-22T01:41:37.074Z,101733.94
2022-08-22T01:44:35.018Z,101729.88
2022-08-22T01:47:11.978Z,101731.75
2022-08-22T01:49:54.411Z,101729.47
2022-08-22T01:52:41.558Z,101726.84
2022-08-22T01:55:20.612Z,101729.09
2022-08-22T01:57:51.984Z,101727.59
2022-08-22T02:00:34.756Z,101724.59
2022-08-22T02:03:23.109Z,101727.59
2022-08-22T02:06:02.428Z,101726.78
2022-08-22T02:08:39.422Z,101721.13
2022-08-22T02:11:10.724Z,101723.75
2022-08-22T02:14:16.378Z,101720.78
2022-08-22T02:16:47.506Z,101714.38
2022-08-22T02:19:14.030Z,101716.97
2022-08-22T02:21:56.533Z,101720.38
2022-08-22T02:24:25.986Z,101719.63
2022-08-22T02:27:04.405Z,101714.69
2022-08-22T02:29:41.307Z,101718.38
2022-08-22T02:32:34.364Z,101725.06
2022-08-22T02:35:12.998Z,101723.59
2022-08-22T02:37:48.594Z,101721.31
2022-08-22T02:40:27.474Z,101709.69
2022-08-22T02:43:03.639Z,101717.28
2022-08-22T02:46:00.870Z,101710.50
2022-08-22T02:48:44.467Z,101711.94
2022-08-22T02:51:30.169Z,101709.69
2022-08-22T02:54:09.022Z,101713.78
2022-08-22T02:56:41.913Z,101708.19
2022-08-22T02:59:26.645Z,101714.56
2022-08-22T03:01:54.910Z,101705.22
2022-08-22T03:04:30.470Z,101706.66
2022-08-22T03:07:03.126Z,101707.00
2022-08-22T03:09:34.388Z,101705.44
2022-08-22T03:12:16.608Z,101693.38
2022-08-22T03:14:53.164Z,101695.66
2022-08-22T03:17:28.081Z,101695.34
2022-08-22T03:19:57.632Z,101698.94
2022-08-22T03:22:36.351Z,101688.13
2022-08-22T03:25:07.487Z,101695.66
2022-08-22T03:27:41.723Z,101693.47
2022-08-22T03:30:17.151Z,101693.44
2022-08-22T03:32:55.697Z,101686.59
2022-08-22T03:35:52.889Z,101689.44
2022-08-22T03:38:24.062Z,101688.75
2022-08-22T03:41:44.614Z,101682.44
2022-08-22T03:44:39.381Z,101688.00
2022-08-22T03:47:15.033Z,101686.84
2022-08-22T03:49:47.521Z,101688.28
2022-08-22T03:52:20.152Z,101682.75
2022-08-22T03:55:25.798Z,101686.44
2022-08-22T03:58:27.827Z,101689.94
2022-08-22T04:01:13.602Z,101691.34
2022-08-22T04:03:43.229Z,101688.75
2022-08-22T04:06:18.719Z,101687.19
2022-08-22T04:09:06.707Z,101685.38
2022-08-22T04:12:02.636Z,101693.31
2022-08-22T04:14:59.979Z,101683.13
2022-08-22T04:17:45.724Z,101680.50
2022-08-22T04:20:21.014Z,101676.34
2022-08-22T04:23:24.552Z,101674.41
2022-08-22T04:25:55.823Z,101677.84
2022-08-22T04:28:43.705Z,101682.19
2022-08-22T04:31:13.112Z,101679.97
2022-08-22T04:33:46.314Z,101688.69
2022-08-22T04:36:19.839Z,101683.81
2022-08-22T04:39:18.436Z,101688.97
2022-08-22T04:41:52.670Z,101681.16
2022-08-22T04:44:38.483Z,101691.66
2022-08-22T04:47:08.248Z,101697.13
2022-08-22T04:49:43.563Z,101690.44
2022-08-22T04:52:30.692Z,101686.34
2022-08-22T04:55:09.776Z,101689.78
2022-08-22T04:58:20.549Z,101699.19
2022-08-22T05:01:04.508Z,101701.69
2022-08-22T05:03:35.804Z,101717.03
2022-08-22T05:06:05.215Z,101706.63
2022-08-22T05:08:36.239Z,101703.91
2022-08-22T05:11:09.040Z,101697.59
2022-08-22T05:13:47.212Z,101699.06
2022-08-22T05:16:19.112Z,101700.59
2022-08-22T05:18:50.177Z,101706.69
2022-08-22T05:21:18.498Z,101695.84
2022-08-22T05:23:52.362Z,101699.94
2022-08-22T05:26:20.833Z,101703.72
2022-08-22T05:28:57.992Z,101705.97
2022-08-22T05:31:32.357Z,101709.72
2022-08-22T05:34:05.695Z,101724.78
2022-08-22T05:36:38.545Z,101721.00
2022-08-22T05:39:12.087Z,101723.69
2022-08-22T05:41:40.044Z,101728.25
2022-08-22T05:44:30.739Z,101733.81
2022-08-22T05:47:09.360Z,101727.81
2022-08-22T05:49:51.762Z,101730.50
2022-08-22T05:52:36.543Z,101730.53
2022-08-22T05:55:10.501Z,101729.41
2022-08-22T05:57:41.710Z,101730.53
2022-08-22T06:00:12.519Z,101726.44
2022-08-22T06:02:59.311Z,101733.25
2022-08-22T06:05:29.073Z,101731.41
2022-08-22T06:08:11.632Z,101737.03
2022-08-22T06:10:49.245Z,101734.47
2022-08-22T06:13:24.721Z,101734.47
2022-08-22T06:16:08.287Z,101742.38
2022-08-22T06:18:37.963Z,101734.50
2022-08-22T06:21:25.348Z,101736.72
2022-08-22T06:23:59.988Z,101750.28
2022-08-22T06:26:31.590Z,101750.97
2022-08-22T06:29:01.616Z,101758.59
2022-08-22T06:31:32.424Z,101753.38
2022-08-22T06:34:09.399Z,101750.84
2022-08-22T06:36:39.934Z,101752.72
2022-08-22T06:39:31.185Z,101752.06
2022-08-22T06:42:06.321Z,101757.34
2022-08-22T06:44:37.622Z,101755.47
2022-08-22T06:47:09.262Z,101764.94
2022-08-22T06:49:39.204Z,101766.88
2022-08-22T06:52:11.665Z,101760.09
2022-08-22T06:54:43.805Z,101763.53
2022-08-22T06:57:27.149Z,101777.53
2022-08-22T06:59:55.638Z,101776.84
2022-08-22T07:02:29.954Z,101766.66
2022-08-22T07:04:56.959Z,101763.66
2022-08-22T07:07:26.721Z,101768.19
2022-08-22T07:09:56.249Z,101770.09
2022-08-22T07:12:30.751Z,101768.63
2022-08-22T07:15:37.248Z,101766.41
2022-08-22T07:18:25.827Z,101763.41
2022-08-22T07:20:59.441Z,101773.59
2022-08-22T07:23:58.425Z,101761.59
2022-08-22T07:26:30.924Z,101762.38
2022-08-22T07:29:11.554Z,101751.81
2022-08-22T07:31:49.035Z,101752.63
2022-08-22T07:34:46.534Z,101750.38
2022-08-22T07:37:25.890Z,101751.16
2022-08-22T07:40:05.590Z,101746.63
2022-08-22T07:42:43.841Z,101745.13
2022-08-22T07:45:35.644Z,101751.53
2022-08-22T07:48:11.027Z,101748.53
2022-08-22T07:50:51.252Z,101742.13
2022-08-22T07:53:26.341Z,101742.50
2022-08-22T07:56:04.510Z,101743.63
2022-08-22T07:58:36.782Z,101730.81
2022-08-22T08:01:04.901Z,101730.38
2022-08-22T08:03:31.692Z,101727.91
2022-08-22T08:06:01.233Z,101723.38
2022-08-22T08:08:42.893Z,101723.72
2022-08-22T08:11:13.402Z,101716.72
2022-08-22T08:13:47.010Z,101715.84
2022-08-22T08:16:21.594Z,101710.25
2022-08-22T08:18:50.356Z,101712.94
2022-08-22T08:21:28.800Z,101710.47
2022-08-22T08:23:56.906Z,101706.44
2022-08-22T08:26:31.359Z,101701.59
2022-08-22T08:28:58.847Z,101702.84
2022-08-22T08:31:34.179Z,101704.38
2022-08-22T08:34:11.463Z,101702.63
2022-08-22T08:36:40.534Z,101700.06
2022-08-22T08:39:25.368Z,101702.47
2022-08-22T08:42:23.612Z,101701.91
2022-08-22T08:45:22.382Z,101703.13
2022-08-22T08:48:15.025Z,101692.38
2022-08-22T08:50:53.637Z,101690.75
2022-08-22T08:53:43.393Z,101691.34
2022-08-22T08:56:21.091Z,101693.44
2022-08-22T08:59:10.607Z,101691.56
2022-08-22T09:02:01.024Z,101695.63
2022-08-22T09:05:04.955Z,101703.84
2022-08-22T09:07:54.329Z,101694.34
2022-08-22T09:10:41.799Z,101690.63
2022-08-22T09:13:29.064Z,101695.59
2022-08-22T09:16:25.898Z,101687.47
2022-08-22T09:19:18.642Z,101683.31
2022-08-22T09:22:30.012Z,101678.38
2022-08-22T09:25:23.386Z,101681.94
2022-08-22T09:28:11.746Z,101684.50
2022-08-22T09:31:17.002Z,101680.91
2022-08-22T09:34:32.590Z,101683.31
2022-08-22T09:37:09.715Z,101683.59
2022-08-22T09:39:59.771Z,101680.38
2022-08-22T09:42:46.500Z,101669.47
2022-08-22T09:45:22.677Z,101671.66
2022-08-22T09:48:02.257Z,101672.47
2022-08-22T09:51:04.849Z,101669.50
2022-08-22T09:54:13.878Z,101668.75
2022-08-22T09:56:52.384Z,101661.88
2022-08-22T09:59:23.363Z,101666.63
2022-08-22T10:02:15.481Z,101662.66
2022-08-22T10:04:51.458Z,101656.66
2022-08-22T10:07:37.958Z,101663.84
2022-08-22T10:10:39.912Z,101655.94
2022-08-22T10:13:36.524Z,101655.50
2022-08-22T10:16:25.159Z,101646.59
2022-08-22T10:19:18.068Z,101654.47
2022-08-22T10:22:05.252Z,101658.09
2022-08-22T10:24:36.094Z,101650.16
2022-08-22T10:27:18.266Z,101656.56
2022-08-22T10:30:09.679Z,101654.47
2022-08-22T10:32:43.629Z,101638.72
2022-08-22T10:35:34.305Z,101638.13
2022-08-22T10:38:05.472Z,101635.81
2022-08-22T10:40:47.654Z,101642.22
2022-08-22T10:43:56.529Z,101626.91
2022-08-22T10:46:38.915Z,101629.47
2022-08-22T10:49:19.922Z,101629.56
2022-08-22T10:52:00.048Z,101627.03
2022-08-22T10:54:46.044Z,101620.50
2022-08-22T10:57:39.816Z,101624.06
2022-08-22T11:00:15.729Z,101624.41
2022-08-22T11:02:53.548Z,101632.34
2022-08-22T11:05:30.309Z,101634.88
2022-08-22T11:08:10.202Z,101631.31
2022-08-22T11:10:39.785Z,101622.03
2022-08-22T11:13:21.139Z,101628.22
2022-08-22T11:16:00.410Z,101628.56
2022-08-22T11:19:02.722Z,101622.34
2022-08-22T11:21:43.459Z,101629.75
2022-08-22T11:24:34.911Z,101623.16
2022-08-22T11:27:21.850Z,101614.66
2022-08-22T11:30:18.181Z,101615.69
2022-08-22T11:33:10.922Z,101617.91
2022-08-22T11:35:56.333Z,101615.50
2022-08-22T11:38:56.778Z,101614.28
2022-08-22T11:41:45.104Z,101611.66
2022-08-22T11:44:50.387Z,101613.94
2022-08-22T11:47:26.574Z,101615.22
2022-08-22T11:50:21.572Z,101618.75
2022-08-22T11:52:56.303Z,101618.34
2022-08-22T11:55:49.008Z,101612.22
2022-08-22T11:58:30.414Z,101617.34
2022-08-22T12:01:05.481Z,101608.28
2022-08-22T12:03:58.929Z,101604.34
2022-08-22T12:06:25.467Z,101606.81
2022-08-22T12:09:27.685Z,101603.84
2022-08-22T12:11:59.452Z,101604.84
2022-08-22T12:14:38.233Z,101609.03
2022-08-22T12:17:55.013Z,101602.59
2022-08-22T12:20:45.493Z,101596.47
2022-08-22T12:23:21.116Z,101597.72
2022-08-22T12:26:29.100Z,101597.69
2022-08-22T12:28:56.064Z,101599.91
2022-08-22T12:31:39.876Z,101602.59
2022-08-22T12:34:19.463Z,101598.91
2022-08-22T12:36:57.661Z,101601.13
2022-08-22T12:39:48.755Z,101599.91
2022-08-22T12:42:21.281Z,101593.75
2022-08-22T12:45:29.669Z,101595.97
2022-08-22T12:48:08.398Z,101600.41
2022-08-22T12:50:58.162Z,101595.72
2022-08-22T12:53:49.461Z,101599.19
2022-08-22T12:56:38.098Z,101591.78
2022-08-22T12:59:26.518Z,101586.16
2022-08-22T13:01:56.750Z,101591.78
2022-08-22T13:04:33.103Z,101579.25
2022-08-22T13:07:05.556Z,101582.22
2022-08-22T13:09:38.074Z,101580.72
2022-08-22T13:12:19.868Z,101572.84
2022-08-22T13:14:51.213Z,101579.00
2022-08-22T13:17:23.848Z,101579.00
2022-08-22T13:20:00.604Z,101576.78
2022-08-22T13:22:30.627Z,101569.44
2022-08-22T13:25:26.121Z,101573.63
2022-08-22T13:28:04.259Z,101576.31
2022-08-22T13:30:37.693Z,101583.44
2022-08-22T13:33:26.721Z,101570.69
2022-08-22T13:35:56.758Z,101564.53
2022-08-22T13:38:27.711Z,101568.47
2022-08-22T13:40:59.224Z,101563.56
2022-08-22T13:43:30.419Z,101561.34
2022-08-22T13:46:02.125Z,101562.34
2022-08-22T13:48:50.350Z,101561.81
2022-08-22T13:51:35.849Z,101558.13
2022-08-22T13:54:12.063Z,101560.84
2022-08-22T13:56:47.815Z,101564.78
2022-08-22T13:59:50.345Z,101555.47
2022-08-22T14:02:24.078Z,101557.91
2022-08-22T14:05:05.085Z,101553.00
2022-08-22T14:07:38.904Z,101551.75
2022-08-22T14:10:14.701Z,101552.50
2022-08-22T14:12:57.124Z,101547.56
2022-08-22T14:15:45.509Z,101544.88
2022-08-22T14:18:30.093Z,101552.25
2022-08-22T14:21:28.649Z,101546.56
2022-08-22T14:24:10.242Z,101539.69
2022-08-22T14:26:51.831Z,101538.88
2022-08-22T14:29:21.254Z,101537.31
2022-08-22T14:32:04.673Z,101541.75
2022-08-22T14:34:38.854Z,101536.53
2022-08-22T14:37:20.234Z,101538.63
2022-08-22T14:39:58.522Z,101530.72
2022-08-22T14:42:30.432Z,101526.78
2022-08-22T14:45:18.633Z,101520.50
2022-08-22T14:48:29.484Z,101518.09
2022-08-22T14:50:57.961Z,101508.88
2022-08-22T14:53:31.111Z,101508.31
2022-08-22T14:56:10.860Z,101506.00
2022-08-22T14:58:49.797Z,101508.69
2022-08-22T15:01:23.763Z,101513.00
2022-08-22T15:03:55.831Z,101506.44
2022-08-22T15:06:48.012Z,101511.00
2022-08-22T15:09:24.996Z,101508.72
2022-08-22T15:11:53.335Z,101505.78
2022-08-22T15:14:26.849Z,101498.94
2022-08-22T15:17:01.053Z,101501.38
2022-08-22T15:19:41.403Z,101499.25
2022-08-22T15:22:18.892Z,101495.34
2022-08-22T15:24:45.990Z,101490.94
2022-08-22T15:27:19.130Z,101496.09
2022-08-22T15:29:58.618Z,101487.22
2022-08-22T15:32:31.558Z,101498.00
2022-08-22T15:35:12.801Z,101488.28
2022-08-22T15:38:04.419Z,101484.63
2022-08-22T15:40:41.331Z,101488.03
2022-08-22T15:43:28.910Z,101482.38
2022-08-22T15:46:23.101Z,101481.53
2022-08-22T15:49:12.927Z,101482.75
2022-08-22T15:51:52.137Z,101487.09
2022-08-22T15:54:25.200Z,101484.66
2022-08-22T15:56:52.013Z,101484.56
2022-08-22T15:59:48.161Z,101482.09
2022-08-22T16:02:26.077Z,101473.91
2022-08-22T16:05:22.941Z,101483.13
2022-08-22T16:07:57.035Z,101476.06
2022-08-22T16:10:23.507Z,101483.97
2022-08-22T16:13:27.493Z,101474.19
2022-08-22T16:16:01.751Z,101474.41
2022-08-22T16:18:34.628Z,101469.19
2022-08-22T16:21:18.223Z,101473.81
2022-08-22T16:23:51.214Z,101462.19
2022-08-22T16:26:20.366Z,101463.34
2022-08-22T16:29:08.466Z,101461.28
2022-08-22T16:31:44.178Z,101455.03
2022-08-22T16:34:16.931Z,101453.06
2022-08-22T16:37:09.209Z,101454.53
2022-08-22T16:39:38.870Z,101458.72
2022-08-22T16:42:14.978Z,101460.41
2022-08-22T16:44:56.802Z,101455.69
2022-08-22T16:47:41.778Z,101451.00
2022-08-22T16:50:23.745Z,101445.38
2022-08-22T16:53:10.581Z,101450.13
2022-08-22T16:55:47.627Z,101447.91
2022-08-22T16:58:56.920Z,101452.09
2022-08-22T17:01:33.576Z,101444.47
2022-08-22T17:04:22.792Z,101444.78
2022-08-22T17:07:38.099Z,101434.50
2022-08-22T17:10:37.920Z,101428.41
2022-08-22T17:13:22.898Z,101438.88
2022-08-22T17:16:23.414Z,101441.94
2022-08-22T17:19:16.234Z,101432.91
2022-08-22T17:21:56.714Z,101427.91
2022-08-22T17:24:53.868Z,101430.47
2022-08-22T17:27:35.335Z,101427.19
2022-08-22T17:30:11.903Z,101429.56
2022-08-22T17:33:06.892Z,101430.66
2022-08-22T17:36:26.289Z,101431.50
2022-08-22T17:39:32.451Z,101431.59
2022-08-22T17:42:41.293Z,101442.53
2022-08-22T17:45:28.047Z,101437.19
2022-08-22T17:48:43.580Z,101440.94
2022-08-22T17:51:26.534Z,101438.50
2022-08-22T17:54:01.648Z,101441.00
2022-08-22T17:57:05.792Z,101441.53
2022-08-22T17:59:42.705Z,101439.78
2022-08-22T18:02:13.732Z,101444.66
2022-08-22T18:05:08.011Z,101441.16
2022-08-22T18:07:58.352Z,101446.97
2022-08-22T18:10:38.786Z,101450.63
2022-08-22T18:13:26.454Z,101447.81
2022-08-22T18:15:58.958Z,101449.38
2022-08-22T18:18:42.565Z,101451.91
2022-08-22T18:21:25.109Z,101453.88
2022-08-22T18:24:01.190Z,101455.38
2022-08-22T18:26:59.899Z,101458.50
2022-08-22T18:29:51.651Z,101453.03
2022-08-22T18:32:29.433Z,101460.34
2022-08-22T18:35:11.401Z,101458.94
2022-08-22T18:38:19.335Z,101459.91
2022-08-22T18:40:56.612Z,101468.81
2022-08-22T18:43:58.357Z,101476.00
2022-08-22T18:46:34.133Z,101476.47
2022-08-22T18:49:16.137Z,101487.56
2022-08-22T18:51:45.364Z,101489.16
2022-08-22T18:54:11.982Z,101490.03
2022-08-22T18:56:52.347Z,101487.00
2022-08-22T18:59:56.595Z,101496.72
2022-08-22T19:02:55.718Z,101494.88
2022-08-22T19:05:45.229Z,101501.66
2022-08-22T19:08:44.318Z,101505.97
2022-08-22T19:11:19.396Z,101501.22
2022-08-22T19:14:02.111Z,101516.84
2022-08-22T19:16:43.645Z,101518.78
2022-08-22T19:20:00.328Z,101514.75
2022-08-22T19:22:30.773Z,101508.16
2022-08-22T19:25:09.164Z,101521.91
2022-08-22T19:28:12.940Z,101527.75
2022-08-22T19:30:45.509Z,101523.56
2022-08-22T19:33:34.588Z,101518.66
2022-08-22T19:36:13.074Z,101518.22
2022-08-22T19:38:53.240Z,101515.50
2022-08-22T19:41:43.835Z,101504.59
2022-08-22T19:44:31.416Z,101514.69
2022-08-22T19:47:19.041Z,101515.47
2022-08-22T19:49:56.146Z,101517.44
2022-08-22T19:52:46.958Z,101513.91
2022-08-22T19:55:13.451Z,101514.78
2022-08-22T19:57:52.235Z,101517.78
2022-08-22T20:00:24.054Z,101517.03
2022-08-22T20:03:10.651Z,101515.91
2022-08-22T20:06:00.104Z,101520.78
2022-08-22T20:08:47.513Z,101510.66
2022-08-22T20:11:43.635Z,101510.31
2022-08-22T20:14:11.600Z,101519.75
2022-08-22T20:17:16.075Z,101507.78
2022-08-22T20:22:38.948Z,101504.41
2022-08-22T20:25:33.391Z,101507.00
2022-08-22T20:28:05.789Z,101501.94
2022-08-22T20:30:41.087Z,101494.66
2022-08-22T20:33:12.826Z,101499.97
2022-08-22T20:35:55.778Z,101497.47
2022-08-22T20:38:27.154Z,101496.97
2022-08-22T20:41:11.111Z,101498.47
2022-08-22T20:43:45.457Z,101497.09
2022-08-22T20:46:53.666Z,101506.47
2022-08-22T20:49:23.965Z,101504.78
2022-08-22T20:52:03.450Z,101509.84
2022-08-22T20:54:33.984Z,101509.97
2022-08-22T20:57:12.406Z,101501.13
2022-08-22T20:59:41.867Z,101502.78
2022-08-22T21:02:18.670Z,101493.59
2022-08-22T21:05:03.398Z,101496.38
2022-08-22T21:07:34.487Z,101492.34
2022-08-22T21:10:42.296Z,101495.13
2022-08-22T21:13:17.331Z,101503.69
2022-08-22T21:15:49.175Z,101501.53
2022-08-22T21:18:30.565Z,101501.94
2022-08-22T21:21:18.041Z,101495.06
2022-08-22T21:23:50.345Z,101496.56
2022-08-22T21:26:22.357Z,101502.78
2022-08-22T21:28:48.886Z,101501.28
2022-08-22T21:31:20.681Z,101491.19
2022-08-22T21:33:50.183Z,101492.34
2022-08-22T21:36:20.903Z,101499.28
2022-08-22T21:39:01.050Z,101495.16
2022-08-22T21:41:47.826Z,101487.75
2022-08-22T21:44:30.532Z,101484.94
2022-08-22T21:47:14.586Z,101489.84
2022-08-22T21:50:21.019Z,101485.94
2022-08-22T21:52:53.611Z,101490.72
2022-08-22T21:55:34.513Z,101487.38
2022-08-22T21:58:34.928Z,101486.91
2022-08-22T22:01:27.350Z,101485.28
2022-08-22T22:03:54.753Z,101482.34
2022-08-22T22:06:21.319Z,101482.75
2022-08-22T22:08:49.040Z,101480.88
2022-08-22T22:11:16.480Z,101478.38
2022-08-22T22:13:43.606Z,101479.13
2022-08-22T22:16:14.469Z,101487.56
2022-08-22T22:18:41.329Z,101488.38
2022-08-22T22:21:08.948Z,101488.56
2022-08-22T22:23:35.595Z,101480.31
2022-08-22T22:26:04.737Z,101483.28
2022-08-22T22:28:36.557Z,101483.34
2022-08-22T22:31:03.670Z,101477.34
2022-08-22T22:33:34.438Z,101483.69
2022-08-22T22:36:14.703Z,101478.09
2022-08-22T22:38:41.767Z,101482.63
2022-08-22T22:41:08.609Z,101481.91
2022-08-22T22:43:35.232Z,101477.81
2022-08-22T22:46:01.896Z,101481.22
2022-08-22T22:48:29.226Z,101483.09
2022-08-22T22:50:56.096Z,101485.09
2022-08-22T22:53:33.699Z,101488.50
2022-08-22T22:56:06.342Z,101491.50
2022-08-22T22:58:35.558Z,101495.31
2022-08-22T23:01:12.725Z,101485.53
2022-08-22T23:03:39.727Z,101487.47
2022-08-22T23:06:16.313Z,101496.16
2022-08-22T23:08:43.106Z,101504.47
2022-08-22T23:11:24.785Z,101506.75
2022-08-22T23:13:51.460Z,101499.59
2022-08-22T23:16:23.284Z,101496.59
2022-08-22T23:18:49.892Z,101491.34
2022-08-22T23:21:20.619Z,101495.50
2022-08-22T23:23:48.854Z,101496.28
2022-08-22T23:26:16.927Z,101495.59
2022-08-22T23:28:43.735Z,101497.81
2022-08-22T23:31:31.992Z,101488.41
2022-08-22T23:34:04.927Z,101488.41
2022-08-22T23:36:31.833Z,101489.88
2022-08-22T23:38:58.503Z,101486.13
2022-08-22T23:41:25.204Z,101475.56
2022-08-22T23:43:54.085Z,101479.34
2022-08-22T23:46:22.996Z,101475.59
2022-08-22T23:48:49.700Z,101475.22
2022-08-22T23:51:23.076Z,101469.56
2022-08-22T23:53:49.883Z,101470.78
2022-08-22T23:56:25.451Z,101473.81
2022-08-22T23:58:53.246Z,101470.44
